Time;durP1;ratioP1;P1;durP2;ratioP2;P2;SDS_P1;SDS_P2;PMS_P1;PMS_P2;Temp;Humidity;BMP_temperature;BMP_pressure;BME280_temperature;BME280_humidity;BME280_pressure;Samples;Min_cycle;Max_cycle;Signal;HPM_P1;HPM_P2
2023/12/12 00:01:34;;;;;;;6.53;3.40;;;;;;;8.09;83.54;100745.28;5060480;28;20047;-70
2023/12/12 00:04:00;;;;;;;8.20;3.10;;;;;;;7.98;82.93;100746.56;5058967;28;20028;-70
2023/12/12 00:06:25;;;;;;;14.90;4.63;;;;;;;7.99;84.75;100749.13;5053198;28;20025;-70
2023/12/12 00:08:51;;;;;;;8.90;3.90;;;;;;;8.09;85.37;100753.19;5053777;28;21155;-70
2023/12/12 00:11:16;;;;;;;7.80;4.40;;;;;;;8.12;85.41;100753.09;5060626;28;20032;-70
2023/12/12 00:13:41;;;;;;;10.82;4.10;;;;;;;8.10;85.49;100752.28;5064343;28;20023;-70
2023/12/12 00:16:08;;;;;;;5.95;3.60;;;;;;;8.12;85.43;100752.25;5069657;28;20032;-70
2023/12/12 00:18:34;;;;;;;8.77;3.45;;;;;;;8.13;85.01;100752.19;5065325;28;20047;-70
2023/12/12 00:21:00;;;;;;;12.95;3.95;;;;;;;8.16;86.13;100756.50;5060467;28;20025;-69
2023/12/12 00:23:26;;;;;;;10.60;3.72;;;;;;;8.17;85.78;100756.44;5054815;28;20255;-69
2023/12/12 00:25:51;;;;;;;12.15;5.43;;;;;;;8.22;85.29;100747.56;5060317;28;20530;-69
2023/12/12 00:28:16;;;;;;;13.52;4.03;;;;;;;8.25;85.65;100752.69;5058642;28;20032;-69
2023/12/12 00:30:42;;;;;;;11.43;3.78;;;;;;;8.24;85.25;100749.22;5062897;28;20021;-69
2023/12/12 00:33:07;;;;;;;8.02;3.88;;;;;;;8.26;85.56;100754.44;5050865;28;20377;-69
2023/12/12 00:35:32;;;;;;;13.13;4.00;;;;;;;8.26;85.32;100751.81;5057269;28;20024;-69
2023/12/12 00:37:58;;;;;;;11.30;4.18;;;;;;;8.27;85.50;100751.75;5061524;28;20032;-69
2023/12/12 00:40:23;;;;;;;13.68;4.93;;;;;;;8.26;85.62;100750.03;5057699;28;20426;-69
2023/12/12 00:42:48;;;;;;;10.68;4.93;;;;;;;8.23;85.60;100746.63;5061328;28;20127;-69
2023/12/12 00:45:14;;;;;;;9.52;4.07;;;;;;;8.21;85.30;100753.69;5062682;28;20432;-69
2023/12/12 00:47:40;;;;;;;16.67;4.68;;;;;;;8.19;85.53;100756.41;5062360;28;20040;-69
2023/12/12 00:50:06;;;;;;;9.30;3.95;;;;;;;8.16;85.14;100743.34;5061799;28;20033;-69
2023/12/12 00:52:31;;;;;;;11.75;4.65;;;;;;;8.09;85.15;100750.56;5057758;28;20029;-69
2023/12/12 00:54:58;;;;;;;15.05;4.85;;;;;;;7.97;84.91;100735.13;5058381;28;20381;-69
2023/12/12 00:57:24;;;;;;;11.73;4.38;;;;;;;7.96;85.63;100745.72;5060384;28;20136;-69
2023/12/12 00:59:50;;;;;;;9.50;4.40;;;;;;;7.86;84.44;100746.00;5072061;28;20019;-69
2023/12/12 01:02:15;;;;;;;13.85;4.07;;;;;;;7.88;85.84;100743.31;5061467;28;20028;-69
2023/12/12 01:04:41;;;;;;;12.05;4.40;;;;;;;7.88;86.35;100741.56;5052704;28;20020;-69
2023/12/12 01:07:06;;;;;;;16.40;4.68;;;;;;;7.90;86.27;100731.00;5059067;28;20478;-69
2023/12/12 01:09:31;;;;;;;10.25;3.78;;;;;;;7.91;85.09;100732.69;5053573;28;20086;-69
2023/12/12 01:11:57;;;;;;;10.77;3.95;;;;;;;7.91;86.57;100738.81;5059894;28;20020;-69
2023/12/12 01:14:22;;;;;;;10.95;4.00;;;;;;;7.47;88.00;100747.19;5060252;28;20546;-69
2023/12/12 01:16:47;;;;;;;13.35;4.10;;;;;;;7.44;89.18;100736.75;5063956;28;20517;-69
2023/12/12 01:19:13;;;;;;;15.93;3.75;;;;;;;7.40;89.79;100738.59;5057545;28;20020;-69
2023/12/12 01:21:38;;;;;;;10.38;4.90;;;;;;;7.27;88.78;100726.72;5063075;28;20036;-69
2023/12/12 01:24:04;;;;;;;11.73;5.00;;;;;;;7.12;88.73;100731.50;5056107;28;20123;-69
2023/12/12 01:26:29;;;;;;;16.08;5.55;;;;;;;7.02;89.03;100721.28;5062572;28;20236;-69
2023/12/12 01:28:54;;;;;;;10.60;3.90;;;;;;;6.90;88.04;100717.22;5060042;28;20032;-69
2023/12/12 01:31:20;;;;;;;19.83;4.60;;;;;;;6.84;89.60;100717.38;5058496;28;20043;-69
2023/12/12 01:33:47;;;;;;;9.35;4.43;;;;;;;6.83;90.03;100726.16;5059021;28;20103;-69
2023/12/12 01:36:13;;;;;;;12.88;4.47;;;;;;;6.78;90.23;100715.78;5064468;28;20384;-69
2023/12/12 01:38:38;;;;;;;13.05;4.50;;;;;;;6.86;90.85;100716.44;5051807;28;20040;-69
2023/12/12 01:41:04;;;;;;;14.50;4.88;;;;;;;6.90;91.19;100711.94;5059295;28;20060;-69
2023/12/12 01:43:31;;;;;;;16.00;4.63;;;;;;;6.92;91.58;100717.19;5064068;28;20024;-69
2023/12/12 01:46:01;;;;;;;13.15;4.45;;;;;;;6.93;91.46;100711.88;5054082;28;20041;-69
2023/12/12 01:48:27;;;;;;;19.02;4.63;;;;;;;6.92;91.29;100709.31;5046345;28;20028;-69
2023/12/12 01:50:53;;;;;;;18.52;4.93;;;;;;;6.89;91.37;100710.22;5054528;28;20964;-69
2023/12/12 01:53:22;;;;;;;8.95;4.68;;;;;;;6.87;91.54;100710.28;5054958;28;20111;-69
2023/12/12 01:55:49;;;;;;;18.90;5.30;;;;;;;6.84;91.35;100712.13;5056036;28;20083;-69
2023/12/12 01:58:14;;;;;;;11.98;3.95;;;;;;;6.82;91.54;100722.69;5055585;28;20408;-69
2023/12/12 02:00:40;;;;;;;13.85;4.50;;;;;;;6.81;92.18;100705.19;5059521;28;20028;-69
2023/12/12 02:03:06;;;;;;;17.15;5.28;;;;;;;6.91;93.02;100721.59;5062738;28;20063;-69
2023/12/12 02:05:32;;;;;;;12.45;4.25;;;;;;;6.97;93.34;100713.53;5064606;28;20349;-69
2023/12/12 02:07:59;;;;;;;14.75;4.15;;;;;;;7.05;93.89;100705.44;5059497;28;20029;-69
2023/12/12 02:10:25;;;;;;;13.43;3.85;;;;;;;7.09;94.29;100709.72;5065635;28;20525;-70
2023/12/12 02:12:50;;;;;;;21.33;4.80;;;;;;;7.13;93.91;100709.59;5060400;28;20036;-70
2023/12/12 02:15:16;;;;;;;12.65;4.05;;;;;;;7.13;93.67;100717.47;5057593;28;20423;-70
2023/12/12 02:17:41;;;;;;;16.25;4.55;;;;;;;7.15;95.04;100709.53;5054945;28;20047;-70
2023/12/12 02:20:07;;;;;;;16.23;5.03;;;;;;;7.20;94.21;100704.13;5054086;28;20029;-70
2023/12/12 02:22:32;;;;;;;22.15;4.93;;;;;;;7.18;94.71;100705.94;5055954;28;20137;-70
2023/12/12 02:24:58;;;;;;;23.27;6.22;;;;;;;7.20;94.89;100704.13;5056630;28;20495;-70
2023/12/12 02:27:24;;;;;;;17.38;6.03;;;;;;;7.20;94.85;100704.13;5057596;28;20045;-70
2023/12/12 02:29:50;;;;;;;17.02;4.90;;;;;;;7.12;94.54;100705.19;5053356;28;20112;-71
2023/12/12 02:32:16;;;;;;;18.52;5.00;;;;;;;7.06;94.11;100694.00;5050835;28;20162;-71
2023/12/12 02:34:41;;;;;;;18.42;5.93;;;;;;;7.00;93.93;100696.81;5054160;28;20395;-70
2023/12/12 02:37:07;;;;;;;16.33;4.45;;;;;;;6.99;94.42;100692.44;5057869;28;20024;-70
2023/12/12 02:39:32;;;;;;;20.58;4.88;;;;;;;7.01;94.43;100696.75;5058928;28;20056;-70
2023/12/12 02:41:58;;;;;;;22.67;5.97;;;;;;;6.97;94.47;100692.50;5048989;28;20040;-70
2023/12/12 02:44:23;;;;;;;23.55;4.45;;;;;;;6.96;94.18;100690.78;5060906;28;20035;-70
2023/12/12 02:46:48;;;;;;;21.10;4.63;;;;;;;6.99;94.23;100698.56;5062270;28;20024;-70
2023/12/12 02:49:14;;;;;;;17.92;4.53;;;;;;;6.95;93.87;100691.69;5061899;28;20179;-70
2023/12/12 02:51:39;;;;;;;22.35;4.07;;;;;;;6.91;94.23;100695.31;5057541;28;20059;-70
2023/12/12 02:54:04;;;;;;;16.40;4.32;;;;;;;6.86;94.53;100686.69;5056199;28;20025;-69
2023/12/12 02:56:34;;;;;;;15.80;4.22;;;;;;;6.82;94.31;100687.66;5061424;28;20037;-70
2023/12/12 02:58:59;;;;;;;17.73;4.57;;;;;;;6.78;94.68;100691.28;5055188;28;20051;-70
2023/12/12 03:01:25;;;;;;;13.60;3.78;;;;;;;6.74;94.59;100693.13;5059130;28;20471;-69
2023/12/12 03:03:50;;;;;;;20.33;4.68;;;;;;;6.70;94.61;100701.13;5060135;28;20025;-70
2023/12/12 03:06:16;;;;;;;24.33;5.15;;;;;;;6.65;94.88;100704.72;5063971;28;20031;-69
2023/12/12 03:08:42;;;;;;;19.98;5.18;;;;;;;6.67;95.30;100698.56;5060327;28;20447;-70
2023/12/12 03:11:07;;;;;;;19.75;5.43;;;;;;;6.64;94.81;100689.03;5062353;28;20025;-70
2023/12/12 03:13:33;;;;;;;14.35;4.35;;;;;;;6.59;94.75;100696.16;5063340;28;20025;-70
2023/12/12 03:15:58;;;;;;;13.23;3.92;;;;;;;6.58;94.82;100692.69;5064763;28;20036;-70
2023/12/12 03:18:24;;;;;;;21.45;4.93;;;;;;;6.56;95.03;100681.34;5065993;28;20044;-70
2023/12/12 03:20:49;;;;;;;17.95;4.72;;;;;;;6.52;94.99;100686.69;5064957;28;20024;-70
2023/12/12 03:23:14;;;;;;;17.55;4.55;;;;;;;6.50;94.62;100673.63;5065563;28;20041;-70
2023/12/12 03:25:40;;;;;;;16.92;5.00;;;;;;;6.47;95.30;100672.84;5062293;28;20033;-70
2023/12/12 03:28:05;;;;;;;18.60;4.30;;;;;;;6.48;95.15;100678.06;5061918;28;20111;-70
2023/12/12 03:30:31;;;;;;;22.10;5.15;;;;;;;6.46;95.48;100673.75;5066310;28;20016;-70
2023/12/12 03:32:57;;;;;;;17.98;4.65;;;;;;;6.42;94.86;100678.19;5057664;28;20176;-70
2023/12/12 03:35:22;;;;;;;18.83;5.32;;;;;;;6.39;94.86;100673.06;5060086;28;20140;-70
2023/12/12 03:37:48;;;;;;;22.13;4.90;;;;;;;6.39;94.86;100679.16;5055072;28;20115;-70
2023/12/12 03:40:13;;;;;;;15.05;4.90;;;;;;;6.38;95.09;100677.41;5058338;28;20024;-70
2023/12/12 03:42:38;;;;;;;18.77;4.60;;;;;;;6.33;94.71;100668.78;5057619;28;20021;-70
2023/12/12 03:45:06;;;;;;;23.60;4.18;;;;;;;6.26;94.32;100658.50;5064233;28;20113;-70
2023/12/12 03:47:31;;;;;;;13.57;4.00;;;;;;;6.27;94.54;100668.09;5055604;28;20102;-70
2023/12/12 03:49:56;;;;;;;22.10;4.90;;;;;;;6.32;94.89;100663.59;5062702;28;20036;-70
2023/12/12 03:52:22;;;;;;;22.08;5.40;;;;;;;6.32;94.44;100650.47;5064120;28;20055;-70
2023/12/12 03:54:47;;;;;;;14.77;3.47;;;;;;;6.21;93.47;100649.88;5061340;28;20448;-70
2023/12/12 03:57:12;;;;;;;11.52;3.95;;;;;;;6.14;93.24;100636.91;5058075;28;20441;-70
2023/12/12 03:59:39;;;;;;;13.35;3.92;;;;;;;6.13;93.53;100631.69;5065639;28;20485;-70
2023/12/12 04:02:04;;;;;;;17.30;5.13;;;;;;;6.16;94.01;100630.78;5056194;28;20033;-70
2023/12/12 04:04:30;;;;;;;10.68;3.60;;;;;;;6.18;93.73;100623.69;5062784;28;20533;-70
2023/12/12 04:06:55;;;;;;;9.15;3.45;;;;;;;6.20;93.73;100625.41;5051522;28;20028;-70
2023/12/12 04:09:21;;;;;;;13.68;4.22;;;;;;;6.25;94.20;100622.63;5060491;28;20035;-69
2023/12/12 04:11:46;;;;;;;20.83;5.60;;;;;;;6.34;94.36;100619.75;5056387;28;20094;-70
2023/12/12 04:14:11;;;;;;;16.50;4.90;;;;;;;6.42;94.51;100625.69;5057298;28;20552;-70
2023/12/12 04:16:37;;;;;;;11.18;4.30;;;;;;;6.45;94.61;100620.34;5060880;28;20029;-70
2023/12/12 04:19:03;;;;;;;16.75;4.85;;;;;;;6.48;94.46;100625.53;5065840;28;20108;-70
2023/12/12 04:21:29;;;;;;;20.40;5.07;;;;;;;6.53;94.52;100622.78;5053358;28;20133;-70
2023/12/12 04:23:54;;;;;;;18.65;5.03;;;;;;;6.60;94.64;100616.44;5048596;28;20129;-70
2023/12/12 04:26:20;;;;;;;22.90;5.95;;;;;;;6.63;94.94;100606.72;5060869;28;20444;-70
2023/12/12 04:28:45;;;;;;;20.20;4.97;;;;;;;6.67;95.01;100610.13;5061347;28;20335;-70
2023/12/12 04:31:17;;;;;;;18.15;4.93;;;;;;;6.74;95.03;100611.69;5061581;28;20040;-69
2023/12/12 04:33:42;;;;;;;16.10;4.75;;;;;;;6.77;94.97;100614.22;5058441;28;20074;-68
2023/12/12 04:36:12;;;;;;;15.77;4.78;;;;;;;6.82;95.26;100614.97;5061311;28;21515;-69
2023/12/12 04:38:38;;;;;;;13.55;5.00;;;;;;;6.83;95.15;100608.78;5064446;28;20027;-70
2023/12/12 04:41:03;;;;;;;20.75;6.18;;;;;;;6.86;95.05;100605.22;5063500;28;20054;-69
2023/12/12 04:43:29;;;;;;;18.27;5.68;;;;;;;6.86;95.16;100605.22;5057829;28;20032;-69
2023/12/12 04:45:55;;;;;;;17.67;4.93;;;;;;;6.89;95.22;100607.75;5051942;28;20415;-69
2023/12/12 04:48:20;;;;;;;24.40;5.30;;;;;;;6.89;95.53;100598.09;5061607;28;20021;-69
2023/12/12 04:50:46;;;;;;;18.38;4.55;;;;;;;6.94;95.34;100597.97;5058619;28;20032;-69
2023/12/12 04:53:11;;;;;;;22.85;5.63;;;;;;;6.97;94.94;100602.28;5063453;28;20040;-69
2023/12/12 04:55:36;;;;;;;21.40;5.15;;;;;;;6.97;95.17;100592.63;5060078;28;20032;-69
2023/12/12 04:58:02;;;;;;;25.90;5.68;;;;;;;6.97;95.73;100597.03;5060797;28;20047;-69
2023/12/12 05:00:27;;;;;;;17.85;5.00;;;;;;;6.98;96.22;100585.59;5057297;28;20131;-69
2023/12/12 05:02:53;;;;;;;25.13;5.93;;;;;;;6.99;96.35;100589.94;5054803;28;20021;-69
2023/12/12 05:05:18;;;;;;;28.17;5.80;;;;;;;7.01;96.17;100588.16;5059651;28;20388;-69
2023/12/12 05:07:43;;;;;;;19.23;5.47;;;;;;;7.06;95.90;100584.47;5062681;28;20147;-69
2023/12/12 05:10:09;;;;;;;23.25;6.80;;;;;;;7.07;96.00;100580.94;5055717;28;20021;-69
2023/12/12 05:12:35;;;;;;;14.90;5.35;;;;;;;7.09;95.78;100583.53;5059147;28;20033;-69
2023/12/12 05:15:00;;;;;;;22.70;5.85;;;;;;;7.09;96.22;100573.03;5056405;28;20032;-69
2023/12/12 05:17:25;;;;;;;23.50;7.15;;;;;;;7.09;96.29;100576.50;5055891;28;20112;-69
2023/12/12 05:19:51;;;;;;;17.90;5.18;;;;;;;7.12;96.09;100575.53;5054146;28;20028;-69
2023/12/12 05:22:16;;;;;;;25.20;5.55;;;;;;;7.12;96.18;100571.13;5056428;28;20025;-69
2023/12/12 05:24:41;;;;;;;12.18;5.03;;;;;;;7.14;95.80;100566.72;5052166;28;20404;-69
2023/12/12 05:27:07;;;;;;;18.85;4.85;;;;;;;7.18;95.97;100569.22;5058340;28;20120;-69
2023/12/12 05:29:32;;;;;;;18.25;5.40;;;;;;;7.18;95.65;100562.22;5058041;28;20048;-69
2023/12/12 05:31:58;;;;;;;15.13;4.95;;;;;;;7.20;95.94;100556.91;5058955;28;20074;-69
2023/12/12 05:34:23;;;;;;;21.25;5.28;;;;;;;7.22;95.78;100557.72;5052797;28;20051;-69
2023/12/12 05:36:48;;;;;;;21.58;5.28;;;;;;;7.21;95.83;100556.84;5055091;28;20035;-69
2023/12/12 05:39:14;;;;;;;19.73;5.82;;;;;;;7.12;96.14;100565.88;5061958;28;20115;-69
2023/12/12 05:41:40;;;;;;;25.17;5.65;;;;;;;6.99;97.55;100559.25;5058636;28;20031;-69
2023/12/12 05:44:07;;;;;;;27.08;6.72;;;;;;;6.98;97.91;100562.81;5056277;28;20396;-69
2023/12/12 05:46:33;;;;;;;13.32;4.55;;;;;;;6.98;97.97;100557.53;5052399;28;20549;-69
2023/12/12 05:48:58;;;;;;;19.40;4.82;;;;;;;6.99;98.07;100559.25;5059295;28;20033;-68
2023/12/12 05:51:23;;;;;;;16.80;5.03;;;;;;;6.97;97.88;100555.84;5058268;28;20268;-69
2023/12/12 05:53:49;;;;;;;19.38;5.68;;;;;;;6.97;97.93;100554.97;5061056;28;20107;-69
2023/12/12 05:56:14;;;;;;;25.95;5.38;;;;;;;6.98;98.41;100559.31;5054520;28;20059;-69
2023/12/12 05:58:39;;;;;;;17.83;5.50;;;;;;;6.95;98.28;100556.78;5056949;28;20016;-69
2023/12/12 06:01:05;;;;;;;22.17;5.78;;;;;;;7.11;98.10;100552.78;5058666;28;20189;-70
2023/12/12 06:03:31;;;;;;;23.10;5.15;;;;;;;7.11;97.48;100553.66;5059497;28;20043;-70
2023/12/12 06:05:57;;;;;;;18.00;4.85;;;;;;;7.13;98.33;100558.84;5065925;28;20621;-70
2023/12/12 06:08:22;;;;;;;31.83;8.32;;;;;;;7.16;98.42;100543.84;5051810;28;20464;-71
2023/12/12 06:10:47;;;;;;;29.67;5.78;;;;;;;7.19;98.67;100540.28;5057379;28;20027;-70
2023/12/12 06:13:13;;;;;;;18.55;5.72;;;;;;;7.33;98.07;100545.97;5054907;28;20033;-70
2023/12/12 06:15:38;;;;;;;24.90;5.80;;;;;;;7.18;98.95;100545.56;5055258;28;20021;-70
2023/12/12 06:18:04;;;;;;;20.60;5.53;;;;;;;7.15;99.09;100546.53;5062039;28;20041;-70
2023/12/12 06:20:32;;;;;;;23.35;6.65;;;;;;;7.15;99.19;100544.75;5054997;28;20020;-70
2023/12/12 06:22:57;;;;;;;25.90;6.55;;;;;;;7.15;99.23;100536.88;5055718;28;20116;-70
2023/12/12 06:25:23;;;;;;;23.00;5.78;;;;;;;7.14;99.71;100537.78;5054357;28;20123;-70
2023/12/12 06:27:48;;;;;;;27.42;6.10;;;;;;;7.17;99.13;100536.81;5057747;28;20539;-70
2023/12/12 06:30:13;;;;;;;21.73;6.22;;;;;;;7.18;99.45;100532.41;5055326;28;20032;-70
2023/12/12 06:32:39;;;;;;;20.15;5.32;;;;;;;7.17;99.56;100526.31;5057927;28;20025;-70
2023/12/12 06:35:05;;;;;;;26.38;6.00;;;;;;;7.21;99.88;100521.81;5062208;28;20500;-70
2023/12/12 06:37:30;;;;;;;28.77;5.40;;;;;;;7.17;99.63;100518.41;5063310;28;20036;-70
2023/12/12 06:39:57;;;;;;;27.67;5.55;;;;;;;7.19;99.82;100513.13;5064484;28;20056;-70
2023/12/12 06:42:23;;;;;;;24.58;5.25;;;;;;;7.22;99.45;100516.50;5062107;28;20032;-70
2023/12/12 06:44:49;;;;;;;23.33;6.03;;;;;;;7.46;98.46;100511.34;5063709;28;20029;-70
2023/12/12 06:47:15;;;;;;;19.95;4.45;;;;;;;7.29;99.40;100510.16;5061273;28;20024;-71
2023/12/12 06:49:40;;;;;;;25.33;5.40;;;;;;;7.29;99.68;100512.78;5058636;28;20380;-70
2023/12/12 06:52:06;;;;;;;25.25;5.13;;;;;;;7.41;99.22;100503.63;5060639;28;20574;-70
2023/12/12 06:54:31;;;;;;;18.60;5.07;;;;;;;7.43;99.03;100507.06;5075477;28;20028;-71
2023/12/12 06:56:56;;;;;;;22.95;5.82;;;;;;;7.35;99.65;100501.19;5057426;28;20055;-70
2023/12/12 06:59:22;;;;;;;23.98;5.78;;;;;;;7.31;100.00;100495.16;5059256;28;20028;-70
2023/12/12 07:01:47;;;;;;;25.05;5.55;;;;;;;7.56;99.30;100494.38;5063584;28;20024;-70
2023/12/12 07:04:13;;;;;;;22.92;5.63;;;;;;;7.60;98.71;100490.72;5059301;28;20028;-71
2023/12/12 07:06:38;;;;;;;20.48;4.78;;;;;;;7.61;98.46;100489.84;5065953;28;20012;-70
2023/12/12 07:09:04;;;;;;;18.45;4.95;;;;;;;7.54;98.61;100483.91;5068320;28;20107;-70
2023/12/12 07:11:31;;;;;;;22.13;6.25;;;;;;;7.38;99.44;100475.66;5061439;28;20067;-71
2023/12/12 07:13:57;;;;;;;23.00;5.43;;;;;;;7.32;99.36;100481.13;5061913;28;20467;-70
2023/12/12 07:16:22;;;;;;;22.20;6.55;;;;;;;7.40;99.01;100473.84;5062124;28;20385;-70
2023/12/12 07:18:48;;;;;;;17.13;4.78;;;;;;;7.53;98.04;100471.66;5059957;28;20087;-70
2023/12/12 07:21:15;;;;;;;21.40;5.50;;;;;;;7.54;98.43;100476.00;5063294;28;20119;-71
2023/12/12 07:23:40;;;;;;;32.28;5.82;;;;;;;7.55;98.58;100469.81;5061470;28;20107;-71
2023/12/12 07:26:05;;;;;;;21.48;4.72;;;;;;;7.61;98.05;100479.31;5055491;28;20031;-70
2023/12/12 07:28:31;;;;;;;21.27;5.32;;;;;;;7.56;97.60;100468.94;5063029;28;20025;-70
2023/12/12 07:30:56;;;;;;;18.77;5.07;;;;;;;7.64;97.89;100479.19;5062321;28;20041;-70
2023/12/12 07:33:21;;;;;;;16.80;5.30;;;;;;;7.67;97.91;100468.56;5059547;28;20028;-71
2023/12/12 07:35:47;;;;;;;21.25;4.75;;;;;;;7.70;98.08;100465.00;5055689;28;20028;-70
2023/12/12 07:38:12;;;;;;;23.23;5.90;;;;;;;7.70;98.56;100463.22;5066400;28;20489;-70
2023/12/12 07:40:38;;;;;;;23.92;6.53;;;;;;;7.72;98.56;100464.00;5061135;28;20089;-70
2023/12/12 07:43:03;;;;;;;25.10;5.85;;;;;;;7.76;98.54;100468.25;5059187;28;20032;-70
2023/12/12 07:45:28;;;;;;;26.33;5.72;;;;;;;7.81;98.93;100478.63;5058770;28;20040;-70
2023/12/12 07:47:54;;;;;;;23.25;5.82;;;;;;;7.87;98.86;100465.25;5055204;28;20035;-70
2023/12/12 07:50:19;;;;;;;19.58;5.03;;;;;;;7.95;98.82;100457.09;5067695;28;20035;-71
2023/12/12 07:52:45;;;;;;;24.80;5.70;;;;;;;7.90;99.05;100454.63;5057406;28;20112;-70
2023/12/12 07:55:10;;;;;;;25.70;5.97;;;;;;;7.90;99.71;100446.72;5057148;28;20274;-71
2023/12/12 07:57:36;;;;;;;23.85;5.15;;;;;;;7.91;99.49;100446.66;5057359;28;20047;-70
2023/12/12 08:00:06;;;;;;;26.45;4.93;;;;;;;7.87;100.00;100446.81;5060434;28;20023;-70
2023/12/12 08:02:32;;;;;;;27.00;5.78;;;;;;;7.91;100.00;100435.28;5060641;28;20279;-70
2023/12/12 08:04:58;;;;;;;19.40;5.15;;;;;;;8.06;100.00;100439.97;5064849;28;20031;-70
2023/12/12 08:07:23;;;;;;;24.60;4.75;;;;;;;8.09;99.72;100437.25;5064306;28;20047;-71
2023/12/12 08:09:48;;;;;;;24.08;4.90;;;;;;;8.37;98.49;100429.22;5058081;28;20021;-70
2023/12/12 08:12:14;;;;;;;17.67;4.32;;;;;;;8.23;99.76;100433.25;5059623;28;20029;-70
2023/12/12 08:14:39;;;;;;;25.95;6.85;;;;;;;8.28;99.31;100437.41;5063470;28;20246;-70
2023/12/12 08:17:04;;;;;;;18.05;4.63;;;;;;;8.31;99.27;100431.19;5057844;28;20029;-69
2023/12/12 08:19:30;;;;;;;20.05;5.07;;;;;;;8.37;98.66;100436.25;5064357;28;20375;-70
2023/12/12 08:21:55;;;;;;;18.65;4.85;;;;;;;8.51;98.95;100422.56;5065432;28;20033;-70
2023/12/12 08:24:21;;;;;;;20.42;5.07;;;;;;;8.69;97.72;100429.75;5067937;28;20025;-70
2023/12/12 08:26:46;;;;;;;28.50;5.47;;;;;;;8.73;96.85;100419.97;5061859;28;20461;-70
2023/12/12 08:29:16;;;;;;;25.02;5.55;;;;;;;8.64;96.67;100422.03;5057912;28;20030;-70
2023/12/12 08:31:41;;;;;;;15.05;5.30;;;;;;;8.83;96.61;100413.41;5058256;28;20032;-70
2023/12/12 08:34:07;;;;;;;18.90;4.95;;;;;;;9.11;95.86;100410.50;5051023;28;20266;-70
2023/12/12 08:36:33;;;;;;;23.33;5.80;;;;;;;9.50;94.57;100413.25;5067849;28;20024;-70
2023/12/12 08:39:02;;;;;;;23.02;4.63;;;;;;;9.69;93.72;100398.34;5057358;28;20017;-70
2023/12/12 08:41:28;;;;;;;22.92;4.85;;;;;;;9.82;92.59;100396.03;5060576;28;20091;-70
2023/12/12 08:43:54;;;;;;;21.42;5.22;;;;;;;9.98;92.08;100401.50;5057883;28;20027;-70
2023/12/12 08:46:22;;;;;;;21.10;4.60;;;;;;;10.33;91.30;100393.78;5057834;28;20472;-70
2023/12/12 08:48:48;;;;;;;12.30;5.32;;;;;;;10.37;90.59;100388.28;5063475;28;20024;-70
2023/12/12 08:51:13;;;;;;;15.48;4.82;;;;;;;10.45;88.91;100386.16;5063297;28;20433;-70
2023/12/12 08:53:40;;;;;;;17.58;5.05;;;;;;;10.64;87.28;100383.50;5057819;28;20059;-70
2023/12/12 08:56:11;;;;;;;14.93;3.65;;;;;;;10.59;86.88;100382.84;5066649;28;20028;-70
2023/12/12 08:58:37;;;;;;;18.25;4.53;;;;;;;10.79;85.83;100394.25;5054606;28;20667;-71
2023/12/12 09:01:02;;;;;;;19.02;3.83;;;;;;;10.77;85.63;100382.88;5054838;28;20058;-70
2023/12/12 09:03:28;;;;;;;15.25;3.88;;;;;;;10.82;86.37;100375.56;5058726;28;20035;-70
2023/12/12 09:05:53;;;;;;;17.38;3.80;;;;;;;11.04;84.95;100381.53;5064732;28;20388;-70
2023/12/12 09:08:19;;;;;;;15.43;4.60;;;;;;;11.50;82.78;100385.38;5056213;28;20021;-70
2023/12/12 09:10:44;;;;;;;17.80;4.32;;;;;;;11.93;80.24;100375.22;5064726;28;20070;-69
2023/12/12 09:13:10;;;;;;;17.58;4.10;;;;;;;12.18;79.15;100366.81;5060433;28;20025;-69
2023/12/12 09:15:35;;;;;;;16.63;3.92;;;;;;;11.92;79.54;100370.00;5057689;28;20111;-69
2023/12/12 09:18:00;;;;;;;11.50;3.30;;;;;;;11.78;80.10;100362.75;5058300;28;20052;-69
2023/12/12 09:20:26;;;;;;;13.02;3.90;;;;;;;12.37;78.46;100360.50;5065000;28;20020;-69
2023/12/12 09:22:51;;;;;;;13.15;3.50;;;;;;;13.02;75.88;100351.47;5064641;28;20461;-70
2023/12/12 09:25:17;;;;;;;12.25;3.35;;;;;;;13.95;72.82;100345.03;5057571;28;20028;-69
2023/12/12 09:27:43;;;;;;;13.15;3.75;;;;;;;14.74;70.29;100339.13;5056964;28;20029;-69
2023/12/12 09:30:08;;;;;;;11.27;3.42;;;;;;;15.60;66.11;100348.47;5059248;28;20043;-70
2023/12/12 09:32:34;;;;;;;10.70;2.97;;;;;;;15.76;64.34;100343.81;5049645;28;20025;-71
2023/12/12 09:34:59;;;;;;;11.85;3.15;;;;;;;16.58;63.07;100348.56;5058370;28;20044;-71
2023/12/12 09:37:24;;;;;;;12.68;2.85;;;;;;;16.69;60.40;100345.09;5062897;28;20052;-70
2023/12/12 09:39:50;;;;;;;11.05;3.08;;;;;;;17.18;59.09;100340.66;5056229;28;20020;-71
2023/12/12 09:42:17;;;;;;;17.25;3.78;;;;;;;17.43;60.64;100335.13;5060481;28;20032;-70
2023/12/12 09:44:50;;;;;;;12.10;2.78;;;;;;;17.83;57.29;100330.25;5054986;28;20024;-70
2023/12/12 09:47:17;;;;;;;11.05;3.42;;;;;;;18.49;54.42;100337.50;5054814;28;20101;-71
2023/12/12 09:49:43;;;;;;;11.15;2.78;;;;;;;18.27;55.37;100331.19;5060244;28;20419;-70
2023/12/12 09:52:09;;;;;;;9.25;2.72;;;;;;;18.14;55.94;100332.31;5066829;28;20519;-71
2023/12/12 09:54:36;;;;;;;11.10;3.47;;;;;;;17.98;56.98;100321.97;5061898;28;20108;-70
2023/12/12 09:57:03;;;;;;;12.65;3.25;;;;;;;18.21;53.75;100318.31;5054473;28;20135;-71
2023/12/12 09:59:28;;;;;;;8.43;2.85;;;;;;;17.76;54.61;100314.78;5060994;28;20025;-70
2023/12/12 10:01:55;;;;;;;11.50;2.92;;;;;;;16.54;57.38;100304.38;5054943;28;20050;-71
2023/12/12 10:04:21;;;;;;;8.70;2.65;;;;;;;15.42;61.35;100298.16;5062054;28;20032;-71
2023/12/12 10:06:52;;;;;;;11.05;2.53;;;;;;;14.63;64.44;100292.88;5064295;28;20111;-71
2023/12/12 10:09:20;;;;;;;10.82;2.85;;;;;;;14.50;66.90;100280.41;5060265;28;20488;-71
2023/12/12 10:11:46;;;;;;;7.70;2.65;;;;;;;14.62;65.50;100286.69;5057809;28;20032;-71
2023/12/12 10:14:11;;;;;;;11.45;3.55;;;;;;;15.41;63.44;100271.63;5052033;28;21104;-71
2023/12/12 10:16:37;;;;;;;12.20;3.15;;;;;;;16.88;59.47;100264.56;5058635;28;20032;-71
2023/12/12 10:19:03;;;;;;;10.57;2.53;;;;;;;18.31;58.05;100246.16;5054724;28;20029;-70
2023/12/12 10:21:29;;;;;;;9.98;2.58;;;;;;;19.06;53.09;100250.63;5053003;28;20029;-71
2023/12/12 10:23:55;;;;;;;10.40;2.45;;;;;;;19.50;50.90;100246.84;5053705;28;20087;-71
2023/12/12 10:26:25;;;;;;;4.82;2.60;;;;;;;19.73;51.60;100247.53;5053752;28;20074;-70
2023/12/12 10:28:52;;;;;;;10.57;2.28;;;;;;;19.76;50.18;100246.41;5055744;28;20042;-71
2023/12/12 10:31:19;;;;;;;9.70;2.83;;;;;;;19.80;50.27;100246.00;5054703;28;20033;-71
2023/12/12 10:33:45;;;;;;;7.53;2.55;;;;;;;20.00;50.09;100243.38;5061154;28;20124;-70
2023/12/12 10:36:10;;;;;;;8.55;1.88;;;;;;;20.58;50.27;100236.31;5063691;28;20111;-71
2023/12/12 10:38:38;;;;;;;7.53;2.20;;;;;;;20.74;46.99;100240.25;5062551;28;20450;-71
2023/12/12 10:41:13;;;;;;;8.23;2.28;;;;;;;20.95;49.38;100229.38;5059115;28;20037;-70
2023/12/12 10:43:42;;;;;;;9.93;2.40;;;;;;;21.25;48.63;100231.84;5056197;28;20028;-70
2023/12/12 10:46:12;;;;;;;8.90;2.30;;;;;;;21.30;47.99;100226.03;5053719;28;20033;-69
2023/12/12 10:48:46;;;;;;;8.27;1.63;;;;;;;21.47;46.42;100219.09;5054680;28;20042;-70
2023/12/12 10:51:16;;;;;;;3.72;1.55;;;;;;;20.64;48.99;100221.47;5057259;28;20033;-69
2023/12/12 10:53:42;;;;;;;4.85;1.85;;;;;;;18.55;52.99;100217.38;5057642;28;20177;-71
2023/12/12 10:56:10;;;;;;;8.95;1.83;;;;;;;17.00;58.95;100220.03;5052022;28;20033;-70
2023/12/12 10:58:37;;;;;;;7.90;1.80;;;;;;;16.10;60.36;100221.44;5057862;28;20068;-69
2023/12/12 11:01:03;;;;;;;6.72;2.10;;;;;;;15.83;64.57;100211.81;5058679;28;20032;-70
2023/12/12 11:03:32;;;;;;;9.45;2.00;;;;;;;15.39;65.70;100217.59;5060172;28;20024;-70
2023/12/12 11:05:59;;;;;;;5.18;1.98;;;;;;;14.90;64.53;100200.56;5065762;28;20028;-70
2023/12/12 11:08:26;;;;;;;9.10;2.30;;;;;;;14.53;65.86;100187.06;5057878;28;20103;-70
2023/12/12 11:10:53;;;;;;;4.53;1.65;;;;;;;14.72;65.86;100191.16;5062484;28;20029;-71
2023/12/12 11:13:21;;;;;;;5.97;1.70;;;;;;;14.74;65.81;100174.16;5059490;28;20024;-70
2023/12/12 11:15:47;;;;;;;4.90;1.70;;;;;;;14.35;67.02;100160.81;5055367;28;20031;-69
2023/12/12 11:18:14;;;;;;;6.30;2.20;;;;;;;13.84;68.14;100172.09;5063337;28;20032;-70